Toyomasa Maru — JJ3927 — position and weather

sailwx.info

Track history (hours):
 
Tides and Currents Weather Stations Pressure Air Temp Water Temp Dewpoint Dewpoint Depression Visibility Wind Speed Wind Dir Waves Ship Positions

Toyomasa Maru

Last reported at 2015-May-25 14:17 UTC. Time now 2015-May-25 15:38 UTC.
Position N 34°58' E 140°13'.

Length 101 m; draft 6.9 m.

Type: Tanker. MMSI: 431300401.

Date/timePositionNaut miles runAvg speedWind from/ knotsBaromVisibWave heightAir tempDewpointWater temp
2015-May-25 14:17N 34°58' E 140°13'1111.6
2015-May-25 13:22N 34°52' E 140°02'23 8.3
2015-May-25 10:34N 35°12' E 139°46'1211.9
2015-May-25 09:34N 35°24' E 139°43'8 8.3
2015-May-25 08:33N 35°32' E 139°46'0 0.0
2015-May-25 07:31N 35°32' E 139°46'0 0.0
2015-May-25 06:31N 35°32' E 139°46'0 0.0
2015-May-25 05:31N 35°32' E 139°46'0 0.0
2015-May-25 04:19N 35°32' E 139°46'0 0.0
2015-May-25 03:31N 35°32' E 139°46'0 0.0
2015-May-25 01:19N 35°32' E 139°46'0 0.0
2015-May-25 00:31N 35°32' E 139°46'1 1.5
2015-May-24 23:33N 35°30' E 139°45'6 5.8
2015-May-24 22:33N 35°24' E 139°45'0 0.4
2015-May-24 21:32N 35°24' E 139°45'2 2.1
2015-May-24 20:34N 35°22' E 139°44'1212.1
2015-May-24 19:33N 35°10' E 139°46'1313.0
2015-May-24 18:33N 34°57' E 139°42'1312.6
2015-May-24 17:30N 34°51' E 139°56'1313.8
2015-May-24 16:33N 34°57' E 140°11'3712.4
2015-May-24 13:33N 35°24' E 140°42'2813.2
2015-May-24 11:24N 35°49' E 140°59'1313.9
2015-May-24 10:29N 36°01' E 141°01'1614.0
2015-May-24 09:20N 36°17' E 141°04'1314.1
2015-May-24 08:24N 36°30' E 141°06'1413.6
2015-May-24 07:23N 36°44' E 141°08'  
2015-May-20 21:27N 34°60' E 140°18'1112.5
2015-May-20 20:33N 34°55' E 140°06'1611.9
2015-May-20 19:14N 34°52' E 139°48'911.5
2015-May-20 18:26N 35°00' E 139°42'1213.3
2015-May-20 17:34N 35°11' E 139°46'1212.3
2015-May-20 16:34N 35°23' E 139°42'1312.5
2015-May-20 15:33N 35°30' E 139°55'5 4.9
2015-May-20 14:33N 35°28' E 140°01'0 0.0
2015-May-20 13:31N 35°28' E 140°01'0 0.0
2015-May-20 12:31N 35°28' E 140°01'0 0.0
2015-May-20 11:28N 35°28' E 140°01'0 0.0
2015-May-20 10:28N 35°28' E 140°01'0 0.0
2015-May-20 09:31N 35°28' E 140°01'0 0.0
2015-May-20 08:31N 35°28' E 140°01'0 0.0
2015-May-20 07:28N 35°28' E 140°01'0 0.0
2015-May-20 06:31N 35°28' E 140°01'5 5.6
2015-May-20 05:33N 35°29' E 139°54'1312.8
2015-May-20 04:33N 35°19' E 139°44'1212.1
2015-May-20 03:33N 35°07' E 139°45'1212.3
2015-May-20 02:33N 34°55' E 139°46'1212.3
2015-May-20 01:32N 34°53' E 140°01'1413.8
2015-May-20 00:31N 34°60' E 140°16'1612.5
2015-May-19 23:15N 35°10' E 140°31'1012.7
2015-May-19 22:30N 35°18' E 140°37'1513.6
2015-May-19 21:26N 35°30' E 140°47'1813.5
2015-May-19 20:07N 35°45' E 140°59'1213.7
2015-May-19 19:13N 35°57' E 141°01'913.7
2015-May-19 18:34N 36°06' E 141°02'1513.8
2015-May-19 17:30N 36°21' E 141°04'1413.9
2015-May-19 16:32N 36°34' E 141°07'105 3.2
2015-May-18 08:03N 34°58' E 140°14'713.1
2015-May-18 07:31N 34°55' E 140°06'21 9.5
2015-May-18 05:19N 35°02' E 139°42'1013.4
2015-May-18 04:33N 35°12' E 139°46'1211.8
2015-May-18 03:33N 35°23' E 139°43'7 7.0
2015-May-18 02:33N 35°30' E 139°45'0 0.0
2015-May-18 01:33N 35°30' E 139°45'0 0.0
2015-May-18 00:33N 35°30' E 139°45'0 0.0
2015-May-17 23:27N 35°30' E 139°45'0 0.0
2015-May-17 22:33N 35°30' E 139°45'4 3.7
2015-May-17 21:33N 35°27' E 139°44'3 2.9
2015-May-17 20:31N 35°24' E 139°45'0 0.0
2015-May-17 19:31N 35°24' E 139°45'0 0.0
2015-May-17 18:31N 35°24' E 139°45'0 0.1
2015-May-17 17:31N 35°24' E 139°45'0 0.0
2015-May-17 16:28N 35°24' E 139°45'0 0.0
2015-May-17 15:31N 35°24' E 139°45'0 0.0
2015-May-17 14:31N 35°24' E 139°45'0 0.0
2015-May-17 13:31N 35°24' E 139°45'0 0.1
2015-May-17 12:31N 35°24' E 139°45'0 0.4
2015-May-17 11:33N 35°24' E 139°45'6 5.8
2015-May-17 10:33N 35°30' E 139°45'0 0.0
2015-May-17 09:33N 35°30' E 139°45'0 0.0
2015-May-17 08:22N 35°30' E 139°45'0 0.0
2015-May-17 07:28N 35°30' E 139°45'0 0.0
2015-May-17 06:31N 35°30' E 139°45'3 3.5
2015-May-17 05:33N 35°27' E 139°44'7 7.2
2015-May-17 04:33N 35°30' E 139°52'7 7.3
2015-May-17 03:33N 35°28' E 140°01'0 0.0
2015-May-17 02:33N 35°28' E 140°01'0 0.0
2015-May-17 01:30N 35°28' E 140°01'0 0.0
2015-May-17 00:33N 35°28' E 140°01'0 0.0
2015-May-16 23:30N 35°28' E 140°01'0 0.0
2015-May-16 22:27N 35°28' E 140°01'2 2.4
2015-May-16 21:33N 35°30' E 139°59'0 0.4
2015-May-16 20:27N 35°30' E 139°58'0 0.0
2015-May-16 19:30N 35°30' E 139°58'0 0.0
2015-May-16 18:18N 35°30' E 139°58'0 0.0
2015-May-16 17:30N 35°30' E 139°58'0 0.0
2015-May-16 16:30N 35°30' E 139°58'0 0.0
2015-May-16 15:30N 35°30' E 139°58'0 0.0
2015-May-16 13:30N 35°30' E 139°58'0 0.0
2015-May-16 12:30N 35°30' E 139°58'0 0.0
2015-May-16 11:30N 35°30' E 139°58'0 0.0
2015-May-16 10:24N 35°30' E 139°58'0 0.0
2015-May-16 09:30N 35°30' E 139°58'5 5.7
2015-May-16 08:33N 35°30' E 139°52'4 3.9
2015-May-16 07:33N 35°32' E 139°48'0 0.0
2015-May-16 06:31N 35°32' E 139°48'0 0.0
2015-May-16 05:31N 35°32' E 139°48'0 0.0
2015-May-16 04:31N 35°32' E 139°48'0 0.0
2015-May-16 03:31N 35°32' E 139°48'2 2.3
2015-May-16 02:33N 35°31' E 139°50'0 0.2
2015-May-16 01:29N 35°30' E 139°50'7 7.3
2015-May-16 00:33N 35°24' E 139°47'1211.6
2015-May-15 23:33N 35°13' E 139°47'1212.3
2015-May-15 22:33N 35°02' E 139°40'  
Track history (hours):
 
Tides and Currents Weather Stations Pressure Air Temp Water Temp Dewpoint Dewpoint Depression Visibility Wind Speed Wind Dir Waves Ship Positions

Toyomasa Maru

Last reported at 2015-May-25 14:17 UTC. Time now 2015-May-25 15:38 UTC.
Position N 34°58' E 140°13'.

Length 101 m; draft 6.9 m.

Type: Tanker. MMSI: 431300401.

Date/timePositionNaut miles runAvg speedWind from/ knotsBaromVisibWave heightAir tempDewpointWater temp
2015-May-25 14:17N 34°58' E 140°13'1111.6
2015-May-25 13:22N 34°52' E 140°02'23 8.3
2015-May-25 10:34N 35°12' E 139°46'1211.9
2015-May-25 09:34N 35°24' E 139°43'8 8.3
2015-May-25 08:33N 35°32' E 139°46'0 0.0
2015-May-25 07:31N 35°32' E 139°46'0 0.0
2015-May-25 06:31N 35°32' E 139°46'0 0.0
2015-May-25 05:31N 35°32' E 139°46'0 0.0
2015-May-25 04:19N 35°32' E 139°46'0 0.0
2015-May-25 03:31N 35°32' E 139°46'0 0.0
2015-May-25 01:19N 35°32' E 139°46'0 0.0
2015-May-25 00:31N 35°32' E 139°46'1 1.5
2015-May-24 23:33N 35°30' E 139°45'6 5.8
2015-May-24 22:33N 35°24' E 139°45'0 0.4
2015-May-24 21:32N 35°24' E 139°45'2 2.1
2015-May-24 20:34N 35°22' E 139°44'1212.1
2015-May-24 19:33N 35°10' E 139°46'1313.0
2015-May-24 18:33N 34°57' E 139°42'1312.6
2015-May-24 17:30N 34°51' E 139°56'1313.8
2015-May-24 16:33N 34°57' E 140°11'3712.4
2015-May-24 13:33N 35°24' E 140°42'2813.2
2015-May-24 11:24N 35°49' E 140°59'1313.9
2015-May-24 10:29N 36°01' E 141°01'1614.0
2015-May-24 09:20N 36°17' E 141°04'1314.1
2015-May-24 08:24N 36°30' E 141°06'1413.6
2015-May-24 07:23N 36°44' E 141°08'  
2015-May-20 21:27N 34°60' E 140°18'1112.5
2015-May-20 20:33N 34°55' E 140°06'1611.9
2015-May-20 19:14N 34°52' E 139°48'911.5
2015-May-20 18:26N 35°00' E 139°42'1213.3
2015-May-20 17:34N 35°11' E 139°46'1212.3
2015-May-20 16:34N 35°23' E 139°42'1312.5
2015-May-20 15:33N 35°30' E 139°55'5 4.9
2015-May-20 14:33N 35°28' E 140°01'0 0.0
2015-May-20 13:31N 35°28' E 140°01'0 0.0
2015-May-20 12:31N 35°28' E 140°01'0 0.0
2015-May-20 11:28N 35°28' E 140°01'0 0.0
2015-May-20 10:28N 35°28' E 140°01'0 0.0
2015-May-20 09:31N 35°28' E 140°01'0 0.0
2015-May-20 08:31N 35°28' E 140°01'0 0.0
2015-May-20 07:28N 35°28' E 140°01'0 0.0
2015-May-20 06:31N 35°28' E 140°01'5 5.6
2015-May-20 05:33N 35°29' E 139°54'1312.8
2015-May-20 04:33N 35°19' E 139°44'1212.1
2015-May-20 03:33N 35°07' E 139°45'1212.3
2015-May-20 02:33N 34°55' E 139°46'1212.3
2015-May-20 01:32N 34°53' E 140°01'1413.8
2015-May-20 00:31N 34°60' E 140°16'1612.5
2015-May-19 23:15N 35°10' E 140°31'1012.7
2015-May-19 22:30N 35°18' E 140°37'1513.6
2015-May-19 21:26N 35°30' E 140°47'1813.5
2015-May-19 20:07N 35°45' E 140°59'1213.7
2015-May-19 19:13N 35°57' E 141°01'913.7
2015-May-19 18:34N 36°06' E 141°02'1513.8
2015-May-19 17:30N 36°21' E 141°04'1413.9
2015-May-19 16:32N 36°34' E 141°07'105 3.2
2015-May-18 08:03N 34°58' E 140°14'713.1
2015-May-18 07:31N 34°55' E 140°06'21 9.5
2015-May-18 05:19N 35°02' E 139°42'1013.4
2015-May-18 04:33N 35°12' E 139°46'1211.8
2015-May-18 03:33N 35°23' E 139°43'7 7.0
2015-May-18 02:33N 35°30' E 139°45'0 0.0
2015-May-18 01:33N 35°30' E 139°45'0 0.0
2015-May-18 00:33N 35°30' E 139°45'0 0.0
2015-May-17 23:27N 35°30' E 139°45'0 0.0
2015-May-17 22:33N 35°30' E 139°45'4 3.7
2015-May-17 21:33N 35°27' E 139°44'3 2.9
2015-May-17 20:31N 35°24' E 139°45'0 0.0
2015-May-17 19:31N 35°24' E 139°45'0 0.0
2015-May-17 18:31N 35°24' E 139°45'0 0.1
2015-May-17 17:31N 35°24' E 139°45'0 0.0
2015-May-17 16:28N 35°24' E 139°45'0 0.0
2015-May-17 15:31N 35°24' E 139°45'0 0.0
2015-May-17 14:31N 35°24' E 139°45'0 0.0
2015-May-17 13:31N 35°24' E 139°45'0 0.1
2015-May-17 12:31N 35°24' E 139°45'0 0.4
2015-May-17 11:33N 35°24' E 139°45'6 5.8
2015-May-17 10:33N 35°30' E 139°45'0 0.0
2015-May-17 09:33N 35°30' E 139°45'0 0.0
2015-May-17 08:22N 35°30' E 139°45'0 0.0
2015-May-17 07:28N 35°30' E 139°45'0 0.0
2015-May-17 06:31N 35°30' E 139°45'3 3.5
2015-May-17 05:33N 35°27' E 139°44'7 7.2
2015-May-17 04:33N 35°30' E 139°52'7 7.3
2015-May-17 03:33N 35°28' E 140°01'0 0.0
2015-May-17 02:33N 35°28' E 140°01'0 0.0
2015-May-17 01:30N 35°28' E 140°01'0 0.0
2015-May-17 00:33N 35°28' E 140°01'0 0.0
2015-May-16 23:30N 35°28' E 140°01'0 0.0
2015-May-16 22:27N 35°28' E 140°01'2 2.4
2015-May-16 21:33N 35°30' E 139°59'0 0.4
2015-May-16 20:27N 35°30' E 139°58'0 0.0
2015-May-16 19:30N 35°30' E 139°58'0 0.0
2015-May-16 18:18N 35°30' E 139°58'0 0.0
2015-May-16 17:30N 35°30' E 139°58'0 0.0
2015-May-16 16:30N 35°30' E 139°58'0 0.0
2015-May-16 15:30N 35°30' E 139°58'0 0.0
2015-May-16 13:30N 35°30' E 139°58'0 0.0
2015-May-16 12:30N 35°30' E 139°58'0 0.0
2015-May-16 11:30N 35°30' E 139°58'0 0.0
2015-May-16 10:24N 35°30' E 139°58'0 0.0
2015-May-16 09:30N 35°30' E 139°58'5 5.7
2015-May-16 08:33N 35°30' E 139°52'4 3.9
2015-May-16 07:33N 35°32' E 139°48'0 0.0
2015-May-16 06:31N 35°32' E 139°48'0 0.0
2015-May-16 05:31N 35°32' E 139°48'0 0.0
2015-May-16 04:31N 35°32' E 139°48'0 0.0
2015-May-16 03:31N 35°32' E 139°48'2 2.3
2015-May-16 02:33N 35°31' E 139°50'0 0.2
2015-May-16 01:29N 35°30' E 139°50'7 7.3
2015-May-16 00:33N 35°24' E 139°47'1211.6
2015-May-15 23:33N 35°13' E 139°47'1212.3
2015-May-15 22:33N 35°02' E 139°40'  

Dump ship's entire track history